sensor_id;sensor_type;location;lat;lon;timestamp;temperature;humidity
64937;SHT30;51452;47.698;19.050;2023-07-20T00:01:21;25.01;60.87
64937;SHT30;51452;47.698;19.050;2023-07-20T00:03:46;24.89;61.18
64937;SHT30;51452;47.698;19.050;2023-07-20T00:06:20;24.88;61.41
64937;SHT30;51452;47.698;19.050;2023-07-20T00:08:45;24.82;61.82
64937;SHT30;51452;47.698;19.050;2023-07-20T00:11:10;24.71;61.84
64937;SHT30;51452;47.698;19.050;2023-07-20T00:13:35;24.67;62.06
64937;SHT30;51452;47.698;19.050;2023-07-20T00:16:01;24.64;61.98
64937;SHT30;51452;47.698;19.050;2023-07-20T00:18:26;24.64;61.80
64937;SHT30;51452;47.698;19.050;2023-07-20T00:20:52;24.58;62.03
64937;SHT30;51452;47.698;19.050;2023-07-20T00:23:17;24.44;62.30
64937;SHT30;51452;47.698;19.050;2023-07-20T00:25:42;24.38;62.52
64937;SHT30;51452;47.698;19.050;2023-07-20T00:28:08;24.18;62.82
64937;SHT30;51452;47.698;19.050;2023-07-20T00:30:33;24.14;62.34
64937;SHT30;51452;47.698;19.050;2023-07-20T00:32:58;24.17;61.93
64937;SHT30;51452;47.698;19.050;2023-07-20T00:35:24;24.23;61.28
64937;SHT30;51452;47.698;19.050;2023-07-20T00:37:50;24.13;61.39
64937;SHT30;51452;47.698;19.050;2023-07-20T00:40:15;24.10;61.83
64937;SHT30;51452;47.698;19.050;2023-07-20T00:42:42;24.14;61.64
64937;SHT30;51452;47.698;19.050;2023-07-20T00:45:08;24.13;61.74
64937;SHT30;51452;47.698;19.050;2023-07-20T00:47:33;24.13;61.03
64937;SHT30;51452;47.698;19.050;2023-07-20T00:49:59;24.12;60.63
64937;SHT30;51452;47.698;19.050;2023-07-20T00:52:25;24.14;61.24
64937;SHT30;51452;47.698;19.050;2023-07-20T00:54:52;24.16;60.63
64937;SHT30;51452;47.698;19.050;2023-07-20T00:57:18;24.14;60.99
64937;SHT30;51452;47.698;19.050;2023-07-20T00:59:44;24.14;60.88
64937;SHT30;51452;47.698;19.050;2023-07-20T01:02:10;24.06;61.13
64937;SHT30;51452;47.698;19.050;2023-07-20T01:04:36;24.03;61.35
64937;SHT30;51452;47.698;19.050;2023-07-20T01:07:15;24.03;60.76
64937;SHT30;51452;47.698;19.050;2023-07-20T01:12:13;24.05;60.02
64937;SHT30;51452;47.698;19.050;2023-07-20T01:14:44;24.00;59.10
64937;SHT30;51452;47.698;19.050;2023-07-20T01:17:10;23.96;59.78
64937;SHT30;51452;47.698;19.050;2023-07-20T01:19:35;23.89;59.66
64937;SHT30;51452;47.698;19.050;2023-07-20T01:33:00;23.89;58.82
64937;SHT30;51452;47.698;19.050;2023-07-20T01:35:29;23.92;58.63
64937;SHT30;51452;47.698;19.050;2023-07-20T01:37:55;23.90;59.34
64937;SHT30;51452;47.698;19.050;2023-07-20T01:40:22;23.93;58.52
64937;SHT30;51452;47.698;19.050;2023-07-20T01:42:51;23.99;57.82
64937;SHT30;51452;47.698;19.050;2023-07-20T01:45:17;24.00;57.44
64937;SHT30;51452;47.698;19.050;2023-07-20T01:47:42;24.03;57.08
64937;SHT30;51452;47.698;19.050;2023-07-20T01:50:09;24.05;56.87
64937;SHT30;51452;47.698;19.050;2023-07-20T01:52:34;24.00;57.85
64937;SHT30;51452;47.698;19.050;2023-07-20T01:54:59;24.02;57.19
64937;SHT30;51452;47.698;19.050;2023-07-20T01:57:25;23.95;57.91
64937;SHT30;51452;47.698;19.050;2023-07-20T01:59:50;23.92;57.32
64937;SHT30;51452;47.698;19.050;2023-07-20T02:02:15;23.93;57.57
64937;SHT30;51452;47.698;19.050;2023-07-20T02:04:41;23.89;56.83
64937;SHT30;51452;47.698;19.050;2023-07-20T02:07:07;23.82;58.10
64937;SHT30;51452;47.698;19.050;2023-07-20T02:09:32;23.76;57.93
64937;SHT30;51452;47.698;19.050;2023-07-20T02:11:57;23.69;57.18
64937;SHT30;51452;47.698;19.050;2023-07-20T02:14:23;23.65;57.05
64937;SHT30;51452;47.698;19.050;2023-07-20T02:16:48;23.56;58.01
64937;SHT30;51452;47.698;19.050;2023-07-20T02:19:18;23.49;58.59
64937;SHT30;51452;47.698;19.050;2023-07-20T02:21:43;23.49;58.81
64937;SHT30;51452;47.698;19.050;2023-07-20T02:24:09;23.41;58.86
64937;SHT30;51452;47.698;19.050;2023-07-20T02:26:34;23.38;60.29
64937;SHT30;51452;47.698;19.050;2023-07-20T02:28:59;23.41;59.95
64937;SHT30;51452;47.698;19.050;2023-07-20T02:31:25;23.42;59.96
64937;SHT30;51452;47.698;19.050;2023-07-20T02:33:50;23.37;60.69
64937;SHT30;51452;47.698;19.050;2023-07-20T02:36:16;23.34;60.26
64937;SHT30;51452;47.698;19.050;2023-07-20T02:38:42;23.27;60.66
64937;SHT30;51452;47.698;19.050;2023-07-20T02:41:07;23.24;61.46
64937;SHT30;51452;47.698;19.050;2023-07-20T02:43:33;23.12;62.22
64937;SHT30;51452;47.698;19.050;2023-07-20T02:45:58;23.05;63.02
64937;SHT30;51452;47.698;19.050;2023-07-20T02:48:24;23.05;62.52
64937;SHT30;51452;47.698;19.050;2023-07-20T02:50:49;23.01;62.88
64937;SHT30;51452;47.698;19.050;2023-07-20T02:53:14;23.01;63.48
64937;SHT30;51452;47.698;19.050;2023-07-20T02:55:40;23.00;63.34
64937;SHT30;51452;47.698;19.050;2023-07-20T02:58:05;23.01;63.42
64937;SHT30;51452;47.698;19.050;2023-07-20T03:00:31;23.00;63.85
64937;SHT30;51452;47.698;19.050;2023-07-20T03:02:56;22.98;64.65
64937;SHT30;51452;47.698;19.050;2023-07-20T03:05:22;22.93;65.35
64937;SHT30;51452;47.698;19.050;2023-07-20T03:07:50;22.81;65.48
64937;SHT30;51452;47.698;19.050;2023-07-20T03:10:16;22.80;66.30
64937;SHT30;51452;47.698;19.050;2023-07-20T03:12:41;22.64;67.83
64937;SHT30;51452;47.698;19.050;2023-07-20T03:15:07;22.71;67.28
64937;SHT30;51452;47.698;19.050;2023-07-20T03:17:32;22.67;67.55
64937;SHT30;51452;47.698;19.050;2023-07-20T03:19:58;22.68;67.63
64937;SHT30;51452;47.698;19.050;2023-07-20T03:22:25;22.63;67.72
64937;SHT30;51452;47.698;19.050;2023-07-20T03:24:50;22.67;66.93
64937;SHT30;51452;47.698;19.050;2023-07-20T03:27:16;22.68;66.65
64937;SHT30;51452;47.698;19.050;2023-07-20T03:29:42;22.74;67.53
64937;SHT30;51452;47.698;19.050;2023-07-20T03:32:07;22.80;67.06
64937;SHT30;51452;47.698;19.050;2023-07-20T03:34:33;22.81;67.72
64937;SHT30;51452;47.698;19.050;2023-07-20T03:36:58;22.76;67.82
64937;SHT30;51452;47.698;19.050;2023-07-20T03:39:24;22.78;68.08
64937;SHT30;51452;47.698;19.050;2023-07-20T03:41:50;22.78;68.40
64937;SHT30;51452;47.698;19.050;2023-07-20T03:44:15;22.84;67.62
64937;SHT30;51452;47.698;19.050;2023-07-20T03:46:40;22.90;68.68
64937;SHT30;51452;47.698;19.050;2023-07-20T03:49:06;22.98;67.29
64937;SHT30;51452;47.698;19.050;2023-07-20T03:51:32;22.98;66.96
64937;SHT30;51452;47.698;19.050;2023-07-20T03:53:57;23.07;68.93
64937;SHT30;51452;47.698;19.050;2023-07-20T03:56:25;23.05;68.32
64937;SHT30;51452;47.698;19.050;2023-07-20T03:58:51;23.03;68.81
64937;SHT30;51452;47.698;19.050;2023-07-20T04:01:16;23.01;67.72
64937;SHT30;51452;47.698;19.050;2023-07-20T04:03:42;22.98;69.32
64937;SHT30;51452;47.698;19.050;2023-07-20T04:06:08;23.00;69.23
64937;SHT30;51452;47.698;19.050;2023-07-20T04:08:33;22.98;69.70
64937;SHT30;51452;47.698;19.050;2023-07-20T04:11:03;22.97;68.97
64937;SHT30;51452;47.698;19.050;2023-07-20T04:13:29;23.01;69.79
64937;SHT30;51452;47.698;19.050;2023-07-20T04:15:58;23.03;69.29
64937;SHT30;51452;47.698;19.050;2023-07-20T04:18:24;23.07;68.36
64937;SHT30;51452;47.698;19.050;2023-07-20T04:20:49;23.07;67.70
64937;SHT30;51452;47.698;19.050;2023-07-20T04:23:14;23.07;69.36
64937;SHT30;51452;47.698;19.050;2023-07-20T04:25:40;23.03;66.50
64937;SHT30;51452;47.698;19.050;2023-07-20T04:28:06;23.03;63.63
64937;SHT30;51452;47.698;19.050;2023-07-20T04:30:35;23.12;65.82
64937;SHT30;51452;47.698;19.050;2023-07-20T04:33:02;23.14;62.08
64937;SHT30;51452;47.698;19.050;2023-07-20T04:35:49;23.15;65.87
64937;SHT30;51452;47.698;19.050;2023-07-20T04:38:16;23.12;66.21
64937;SHT30;51452;47.698;19.050;2023-07-20T04:40:46;23.19;64.06
64937;SHT30;51452;47.698;19.050;2023-07-20T04:43:15;23.27;63.39
64937;SHT30;51452;47.698;19.050;2023-07-20T04:45:41;23.38;64.19
64937;SHT30;51452;47.698;19.050;2023-07-20T04:48:09;23.44;63.58
64937;SHT30;51452;47.698;19.050;2023-07-20T04:50:40;23.52;62.54
64937;SHT30;51452;47.698;19.050;2023-07-20T04:53:05;23.61;57.55
64937;SHT30;51452;47.698;19.050;2023-07-20T04:55:34;23.80;62.22
64937;SHT30;51452;47.698;19.050;2023-07-20T04:58:00;23.83;56.85
64937;SHT30;51452;47.698;19.050;2023-07-20T05:00:26;23.82;55.34
64937;SHT30;51452;47.698;19.050;2023-07-20T05:02:51;23.96;56.16
64937;SHT30;51452;47.698;19.050;2023-07-20T05:05:17;23.93;57.62
64937;SHT30;51452;47.698;19.050;2023-07-20T05:07:42;23.87;54.85
64937;SHT30;51452;47.698;19.050;2023-07-20T05:10:07;23.73;55.82
64937;SHT30;51452;47.698;19.050;2023-07-20T05:12:33;23.80;55.63
64937;SHT30;51452;47.698;19.050;2023-07-20T05:14:58;23.79;54.42
64937;SHT30;51452;47.698;19.050;2023-07-20T05:17:24;23.86;55.28
64937;SHT30;51452;47.698;19.050;2023-07-20T05:19:50;23.96;54.08
64937;SHT30;51452;47.698;19.050;2023-07-20T05:22:17;24.05;54.25
64937;SHT30;51452;47.698;19.050;2023-07-20T05:24:42;24.09;53.67
64937;SHT30;51452;47.698;19.050;2023-07-20T05:27:08;24.14;55.21
64937;SHT30;51452;47.698;19.050;2023-07-20T05:29:33;24.23;54.45
64937;SHT30;51452;47.698;19.050;2023-07-20T05:31:59;24.28;55.59
64937;SHT30;51452;47.698;19.050;2023-07-20T05:34:24;24.21;54.24
64937;SHT30;51452;47.698;19.050;2023-07-20T05:36:49;24.24;53.76
64937;SHT30;51452;47.698;19.050;2023-07-20T05:39:16;24.27;55.69
64937;SHT30;51452;47.698;19.050;2023-07-20T05:41:42;24.41;54.25
64937;SHT30;51452;47.698;19.050;2023-07-20T05:44:08;24.40;56.26
64937;SHT30;51452;47.698;19.050;2023-07-20T05:46:33;24.43;55.18
64937;SHT30;51452;47.698;19.050;2023-07-20T05:48:58;24.28;55.18
64937;SHT30;51452;47.698;19.050;2023-07-20T05:51:24;24.43;55.23
64937;SHT30;51452;47.698;19.050;2023-07-20T05:53:49;24.43;53.83
64937;SHT30;51452;47.698;19.050;2023-07-20T05:56:14;24.36;54.27
64937;SHT30;51452;47.698;19.050;2023-07-20T05:58:40;24.40;56.46
64937;SHT30;51452;47.698;19.050;2023-07-20T06:01:05;24.44;54.07
64937;SHT30;51452;47.698;19.050;2023-07-20T06:03:32;24.41;53.76
64937;SHT30;51452;47.698;19.050;2023-07-20T06:06:02;24.47;54.19
64937;SHT30;51452;47.698;19.050;2023-07-20T06:08:28;24.41;54.38
64937;SHT30;51452;47.698;19.050;2023-07-20T06:10:54;24.53;54.81
64937;SHT30;51452;47.698;19.050;2023-07-20T06:13:19;24.44;54.17
64937;SHT30;51452;47.698;19.050;2023-07-20T06:15:44;24.26;53.10
64937;SHT30;51452;47.698;19.050;2023-07-20T06:18:10;24.47;54.57
64937;SHT30;51452;47.698;19.050;2023-07-20T06:20:35;24.50;54.69
64937;SHT30;51452;47.698;19.050;2023-07-20T06:23:01;24.55;53.19
64937;SHT30;51452;47.698;19.050;2023-07-20T06:25:26;24.64;54.01
64937;SHT30;51452;47.698;19.050;2023-07-20T06:27:52;24.71;53.93
64937;SHT30;51452;47.698;19.050;2023-07-20T06:30:17;24.81;53.73
64937;SHT30;51452;47.698;19.050;2023-07-20T06:32:43;24.86;54.12
64937;SHT30;51452;47.698;19.050;2023-07-20T06:35:09;24.85;53.49
64937;SHT30;51452;47.698;19.050;2023-07-20T06:37:35;24.92;53.37
64937;SHT30;51452;47.698;19.050;2023-07-20T06:40:01;24.92;52.08
64937;SHT30;51452;47.698;19.050;2023-07-20T06:42:26;24.88;52.60
64937;SHT30;51452;47.698;19.050;2023-07-20T06:44:52;25.04;53.49
64937;SHT30;51452;47.698;19.050;2023-07-20T06:47:17;25.05;52.17
64937;SHT30;51452;47.698;19.050;2023-07-20T06:49:42;25.09;51.42
64937;SHT30;51452;47.698;19.050;2023-07-20T06:52:08;25.18;50.78
64937;SHT30;51452;47.698;19.050;2023-07-20T06:54:33;25.20;52.31
64937;SHT30;51452;47.698;19.050;2023-07-20T06:56:58;25.20;51.50
64937;SHT30;51452;47.698;19.050;2023-07-20T06:59:25;25.08;51.40
64937;SHT30;51452;47.698;19.050;2023-07-20T07:01:50;25.09;51.95
64937;SHT30;51452;47.698;19.050;2023-07-20T07:04:15;25.30;51.93
64937;SHT30;51452;47.698;19.050;2023-07-20T07:06:41;25.35;50.24
64937;SHT30;51452;47.698;19.050;2023-07-20T07:09:06;25.47;51.00
64937;SHT30;51452;47.698;19.050;2023-07-20T07:11:33;25.40;49.37
64937;SHT30;51452;47.698;19.050;2023-07-20T07:13:59;25.42;50.54
64937;SHT30;51452;47.698;19.050;2023-07-20T07:16:24;25.39;49.89
64937;SHT30;51452;47.698;19.050;2023-07-20T07:18:51;25.45;49.56
64937;SHT30;51452;47.698;19.050;2023-07-20T07:21:16;25.40;49.60
64937;SHT30;51452;47.698;19.050;2023-07-20T07:23:42;25.53;52.57
64937;SHT30;51452;47.698;19.050;2023-07-20T07:26:11;25.63;49.66
64937;SHT30;51452;47.698;19.050;2023-07-20T07:28:37;25.67;50.06
64937;SHT30;51452;47.698;19.050;2023-07-20T07:31:05;25.76;49.64
64937;SHT30;51452;47.698;19.050;2023-07-20T07:33:31;25.74;49.36
64937;SHT30;51452;47.698;19.050;2023-07-20T07:35:57;25.84;49.11
64937;SHT30;51452;47.698;19.050;2023-07-20T07:38:23;25.81;49.00
64937;SHT30;51452;47.698;19.050;2023-07-20T07:40:48;25.67;49.50
64937;SHT30;51452;47.698;19.050;2023-07-20T07:43:13;25.71;48.66
64937;SHT30;51452;47.698;19.050;2023-07-20T07:45:40;25.54;48.51
64937;SHT30;51452;47.698;19.050;2023-07-20T07:48:06;25.47;49.08
64937;SHT30;51452;47.698;19.050;2023-07-20T07:50:32;25.37;49.91
64937;SHT30;51452;47.698;19.050;2023-07-20T07:52:58;25.51;49.23
64937;SHT30;51452;47.698;19.050;2023-07-20T07:55:24;25.39;49.37
64937;SHT30;51452;47.698;19.050;2023-07-20T07:57:50;25.47;49.51
64937;SHT30;51452;47.698;19.050;2023-07-20T08:00:15;25.53;49.74
64937;SHT30;51452;47.698;19.050;2023-07-20T08:02:44;25.47;48.68
64937;SHT30;51452;47.698;19.050;2023-07-20T08:05:10;25.59;49.53
64937;SHT30;51452;47.698;19.050;2023-07-20T08:07:38;25.54;49.41
64937;SHT30;51452;47.698;19.050;2023-07-20T08:10:04;25.63;50.18
64937;SHT30;51452;47.698;19.050;2023-07-20T08:12:30;25.53;48.76
64937;SHT30;51452;47.698;19.050;2023-07-20T08:14:56;25.54;48.58
64937;SHT30;51452;47.698;19.050;2023-07-20T08:17:21;25.62;49.09
64937;SHT30;51452;47.698;19.050;2023-07-20T08:19:47;25.70;50.57
64937;SHT30;51452;47.698;19.050;2023-07-20T08:22:12;25.73;48.70
64937;SHT30;51452;47.698;19.050;2023-07-20T08:24:44;25.81;48.28
64937;SHT30;51452;47.698;19.050;2023-07-20T08:27:09;25.90;48.41
64937;SHT30;51452;47.698;19.050;2023-07-20T08:29:35;26.01;48.02
64937;SHT30;51452;47.698;19.050;2023-07-20T08:32:02;26.00;47.92
64937;SHT30;51452;47.698;19.050;2023-07-20T08:34:29;26.08;47.55
64937;SHT30;51452;47.698;19.050;2023-07-20T08:36:55;26.11;47.02
64937;SHT30;51452;47.698;19.050;2023-07-20T08:39:21;26.14;47.04
64937;SHT30;51452;47.698;19.050;2023-07-20T08:41:48;26.22;47.44
64937;SHT30;51452;47.698;19.050;2023-07-20T08:44:14;26.32;46.69
64937;SHT30;51452;47.698;19.050;2023-07-20T08:46:41;26.38;47.36
64937;SHT30;51452;47.698;19.050;2023-07-20T08:49:06;26.21;45.55
64937;SHT30;51452;47.698;19.050;2023-07-20T08:51:32;26.22;46.45
64937;SHT30;51452;47.698;19.050;2023-07-20T08:53:58;26.14;46.72
64937;SHT30;51452;47.698;19.050;2023-07-20T08:56:27;26.24;46.20
64937;SHT30;51452;47.698;19.050;2023-07-20T08:58:53;26.18;45.43
64937;SHT30;51452;47.698;19.050;2023-07-20T09:01:22;26.32;47.54
64937;SHT30;51452;47.698;19.050;2023-07-20T09:03:48;26.44;47.86
64937;SHT30;51452;47.698;19.050;2023-07-20T09:06:14;26.42;46.96
64937;SHT30;51452;47.698;19.050;2023-07-20T09:08:41;26.34;45.78
64937;SHT30;51452;47.698;19.050;2023-07-20T09:11:07;26.34;45.94
64937;SHT30;51452;47.698;19.050;2023-07-20T09:13:33;26.26;45.25
64937;SHT30;51452;47.698;19.050;2023-07-20T09:15:59;26.42;45.03
64937;SHT30;51452;47.698;19.050;2023-07-20T09:18:29;26.57;46.57
64937;SHT30;51452;47.698;19.050;2023-07-20T09:20:58;26.83;46.48
64937;SHT30;51452;47.698;19.050;2023-07-20T09:23:36;26.89;47.04
64937;SHT30;51452;47.698;19.050;2023-07-20T09:26:13;27.04;45.33
64937;SHT30;51452;47.698;19.050;2023-07-20T09:28:43;27.08;43.15
64937;SHT30;51452;47.698;19.050;2023-07-20T09:31:21;27.13;44.85
64937;SHT30;51452;47.698;19.050;2023-07-20T09:33:47;27.22;43.95
64937;SHT30;51452;47.698;19.050;2023-07-20T09:36:13;27.27;43.27
64937;SHT30;51452;47.698;19.050;2023-07-20T09:38:42;27.35;42.86
64937;SHT30;51452;47.698;19.050;2023-07-20T09:41:14;27.50;45.48
64937;SHT30;51452;47.698;19.050;2023-07-20T09:43:41;27.58;42.16
64937;SHT30;51452;47.698;19.050;2023-07-20T09:46:07;27.61;43.37
64937;SHT30;51452;47.698;19.050;2023-07-20T09:48:32;27.75;43.78
64937;SHT30;51452;47.698;19.050;2023-07-20T09:50:58;27.80;42.61
64937;SHT30;51452;47.698;19.050;2023-07-20T09:53:25;27.92;42.68
64937;SHT30;51452;47.698;19.050;2023-07-20T09:55:52;28.13;42.14
64937;SHT30;51452;47.698;19.050;2023-07-20T09:58:18;28.29;41.13
64937;SHT30;51452;47.698;19.050;2023-07-20T10:00:44;28.45;40.87
64937;SHT30;51452;47.698;19.050;2023-07-20T10:03:14;28.49;40.84
64937;SHT30;51452;47.698;19.050;2023-07-20T10:05:54;28.47;40.38
64937;SHT30;51452;47.698;19.050;2023-07-20T10:08:24;28.47;40.37
64937;SHT30;51452;47.698;19.050;2023-07-20T10:10:50;28.54;40.54
64937;SHT30;51452;47.698;19.050;2023-07-20T10:13:29;28.39;40.13
64937;SHT30;51452;47.698;19.050;2023-07-20T10:16:02;28.29;39.30
64937;SHT30;51452;47.698;19.050;2023-07-20T10:18:31;28.39;41.40
64937;SHT30;51452;47.698;19.050;2023-07-20T10:21:00;28.36;40.08
64937;SHT30;51452;47.698;19.050;2023-07-20T10:23:28;28.36;39.15
64937;SHT30;51452;47.698;19.050;2023-07-20T10:25:54;28.56;40.44
64937;SHT30;51452;47.698;19.050;2023-07-20T10:28:21;28.66;39.22
64937;SHT30;51452;47.698;19.050;2023-07-20T10:30:48;28.66;38.53
64937;SHT30;51452;47.698;19.050;2023-07-20T10:33:15;28.73;40.08
64937;SHT30;51452;47.698;19.050;2023-07-20T10:35:52;28.97;40.95
64937;SHT30;51452;47.698;19.050;2023-07-20T10:38:17;29.12;37.17
64937;SHT30;51452;47.698;19.050;2023-07-20T10:40:54;29.19;38.45
64937;SHT30;51452;47.698;19.050;2023-07-20T10:43:20;29.12;38.84
64937;SHT30;51452;47.698;19.050;2023-07-20T10:45:51;29.19;39.63
64937;SHT30;51452;47.698;19.050;2023-07-20T10:48:24;29.10;37.98
64937;SHT30;51452;47.698;19.050;2023-07-20T10:51:12;28.93;38.47
64937;SHT30;51452;47.698;19.050;2023-07-20T10:53:41;28.84;38.08
64937;SHT30;51452;47.698;19.050;2023-07-20T10:56:11;28.90;40.43
64937;SHT30;51452;47.698;19.050;2023-07-20T10:58:36;29.03;38.43
64937;SHT30;51452;47.698;19.050;2023-07-20T11:01:03;28.91;41.21
64937;SHT30;51452;47.698;19.050;2023-07-20T11:03:34;28.90;37.51
64937;SHT30;51452;47.698;19.050;2023-07-20T11:06:00;28.83;37.72
64937;SHT30;51452;47.698;19.050;2023-07-20T11:08:45;28.80;37.79
64937;SHT30;51452;47.698;19.050;2023-07-20T11:11:24;28.80;37.84
64937;SHT30;51452;47.698;19.050;2023-07-20T11:14:23;28.71;35.66
64937;SHT30;51452;47.698;19.050;2023-07-20T11:16:50;28.77;39.44
64937;SHT30;51452;47.698;19.050;2023-07-20T11:19:24;28.88;38.95
64937;SHT30;51452;47.698;19.050;2023-07-20T11:21:55;28.87;36.24
64937;SHT30;51452;47.698;19.050;2023-07-20T11:24:21;28.91;38.46
64937;SHT30;51452;47.698;19.050;2023-07-20T11:26:48;28.93;39.51
64937;SHT30;51452;47.698;19.050;2023-07-20T11:29:16;29.05;37.97
64937;SHT30;51452;47.698;19.050;2023-07-20T11:31:43;29.04;35.29
64937;SHT30;51452;47.698;19.050;2023-07-20T11:34:19;28.98;36.36
64937;SHT30;51452;47.698;19.050;2023-07-20T11:36:50;28.97;37.37
64937;SHT30;51452;47.698;19.050;2023-07-20T11:39:19;29.14;37.73
64937;SHT30;51452;47.698;19.050;2023-07-20T11:41:50;29.15;36.27
64937;SHT30;51452;47.698;19.050;2023-07-20T11:44:23;29.16;34.77
64937;SHT30;51452;47.698;19.050;2023-07-20T11:49:30;29.25;36.50
64937;SHT30;51452;47.698;19.050;2023-07-20T11:51:57;29.29;35.87
64937;SHT30;51452;47.698;19.050;2023-07-20T11:54:23;29.36;37.43
64937;SHT30;51452;47.698;19.050;2023-07-20T11:56:53;29.35;35.64
64937;SHT30;51452;47.698;19.050;2023-07-20T11:59:18;29.42;35.46
64937;SHT30;51452;47.698;19.050;2023-07-20T12:01:44;29.38;34.79
64937;SHT30;51452;47.698;19.050;2023-07-20T12:04:10;29.36;34.69
64937;SHT30;51452;47.698;19.050;2023-07-20T12:06:35;29.34;34.78
64937;SHT30;51452;47.698;19.050;2023-07-20T12:09:01;29.29;35.28
64937;SHT30;51452;47.698;19.050;2023-07-20T12:11:34;29.42;37.38
64937;SHT30;51452;47.698;19.050;2023-07-20T12:13:59;29.49;35.33
64937;SHT30;51452;47.698;19.050;2023-07-20T12:16:28;29.41;35.49
64937;SHT30;51452;47.698;19.050;2023-07-20T12:21:34;29.46;37.31
64937;SHT30;51452;47.698;19.050;2023-07-20T12:24:02;29.26;35.55
64937;SHT30;51452;47.698;19.050;2023-07-20T12:26:32;29.35;36.55
64937;SHT30;51452;47.698;19.050;2023-07-20T12:28:59;29.38;33.41
64937;SHT30;51452;47.698;19.050;2023-07-20T12:31:25;29.39;34.44
64937;SHT30;51452;47.698;19.050;2023-07-20T12:33:52;29.25;34.17
64937;SHT30;51452;47.698;19.050;2023-07-20T12:36:18;29.36;33.88
64937;SHT30;51452;47.698;19.050;2023-07-20T12:38:44;29.36;34.19
64937;SHT30;51452;47.698;19.050;2023-07-20T12:41:11;29.52;35.51
64937;SHT30;51452;47.698;19.050;2023-07-20T12:43:41;29.61;36.45
64937;SHT30;51452;47.698;19.050;2023-07-20T12:46:06;29.67;36.26
64937;SHT30;51452;47.698;19.050;2023-07-20T12:48:32;29.70;35.69
64937;SHT30;51452;47.698;19.050;2023-07-20T12:50:58;29.70;35.28
64937;SHT30;51452;47.698;19.050;2023-07-20T12:56:07;29.61;32.74
64937;SHT30;51452;47.698;19.050;2023-07-20T12:58:33;29.58;33.39
64937;SHT30;51452;47.698;19.050;2023-07-20T13:00:58;29.72;33.68
64937;SHT30;51452;47.698;19.050;2023-07-20T13:03:23;29.69;34.54
64937;SHT30;51452;47.698;19.050;2023-07-20T13:05:49;29.77;36.08
64937;SHT30;51452;47.698;19.050;2023-07-20T13:08:15;29.82;33.67
64937;SHT30;51452;47.698;19.050;2023-07-20T13:10:41;29.66;33.00
64937;SHT30;51452;47.698;19.050;2023-07-20T13:13:07;29.89;35.46
64937;SHT30;51452;47.698;19.050;2023-07-20T13:15:40;29.86;33.52
64937;SHT30;51452;47.698;19.050;2023-07-20T13:18:05;29.76;33.76
64937;SHT30;51452;47.698;19.050;2023-07-20T13:20:31;29.67;31.83
64937;SHT30;51452;47.698;19.050;2023-07-20T13:22:56;29.63;34.16
64937;SHT30;51452;47.698;19.050;2023-07-20T13:25:21;29.58;33.27
64937;SHT30;51452;47.698;19.050;2023-07-20T13:27:47;29.63;35.34
64937;SHT30;51452;47.698;19.050;2023-07-20T13:30:13;29.59;33.87
64937;SHT30;51452;47.698;19.050;2023-07-20T13:32:42;29.56;32.79
64937;SHT30;51452;47.698;19.050;2023-07-20T13:35:09;29.58;33.62
64937;SHT30;51452;47.698;19.050;2023-07-20T13:37:34;29.45;34.03
64937;SHT30;51452;47.698;19.050;2023-07-20T13:40:00;29.49;32.60
64937;SHT30;51452;47.698;19.050;2023-07-20T13:42:25;29.52;32.85
64937;SHT30;51452;47.698;19.050;2023-07-20T13:44:51;29.58;35.20
64937;SHT30;51452;47.698;19.050;2023-07-20T13:47:16;29.65;32.48
64937;SHT30;51452;47.698;19.050;2023-07-20T13:49:43;29.69;34.56
64937;SHT30;51452;47.698;19.050;2023-07-20T13:52:08;29.77;34.11
64937;SHT30;51452;47.698;19.050;2023-07-20T13:54:34;29.89;32.28
64937;SHT30;51452;47.698;19.050;2023-07-20T13:56:59;29.90;34.93
64937;SHT30;51452;47.698;19.050;2023-07-20T13:59:25;29.90;33.51
64937;SHT30;51452;47.698;19.050;2023-07-20T14:01:50;30.02;33.34
64937;SHT30;51452;47.698;19.050;2023-07-20T14:04:16;29.99;33.06
64937;SHT30;51452;47.698;19.050;2023-07-20T14:06:42;29.87;34.82
64937;SHT30;51452;47.698;19.050;2023-07-20T14:09:07;30.09;33.52
64937;SHT30;51452;47.698;19.050;2023-07-20T14:11:33;30.07;33.91
64937;SHT30;51452;47.698;19.050;2023-07-20T14:13:58;30.13;36.06
64937;SHT30;51452;47.698;19.050;2023-07-20T14:16:24;30.17;35.66
64937;SHT30;51452;47.698;19.050;2023-07-20T14:18:50;30.13;34.03
64937;SHT30;51452;47.698;19.050;2023-07-20T14:21:20;30.13;33.49
64937;SHT30;51452;47.698;19.050;2023-07-20T14:23:46;30.13;34.30
64937;SHT30;51452;47.698;19.050;2023-07-20T14:26:12;30.16;33.78
64937;SHT30;51452;47.698;19.050;2023-07-20T14:28:38;29.90;33.18
64937;SHT30;51452;47.698;19.050;2023-07-20T14:31:03;29.70;32.90
64937;SHT30;51452;47.698;19.050;2023-07-20T14:33:29;29.77;33.68
64937;SHT30;51452;47.698;19.050;2023-07-20T14:35:54;29.87;36.86
64937;SHT30;51452;47.698;19.050;2023-07-20T14:38:20;29.87;33.98
64937;SHT30;51452;47.698;19.050;2023-07-20T14:40:45;29.80;35.31
64937;SHT30;51452;47.698;19.050;2023-07-20T14:43:11;29.82;34.12
64937;SHT30;51452;47.698;19.050;2023-07-20T14:45:36;29.75;34.10
64937;SHT30;51452;47.698;19.050;2023-07-20T14:48:05;29.77;33.50
64937;SHT30;51452;47.698;19.050;2023-07-20T14:50:31;29.69;35.06
64937;SHT30;51452;47.698;19.050;2023-07-20T14:52:56;29.66;34.71
64937;SHT30;51452;47.698;19.050;2023-07-20T14:55:21;29.62;33.33
64937;SHT30;51452;47.698;19.050;2023-07-20T14:57:48;29.55;33.82
64937;SHT30;51452;47.698;19.050;2023-07-20T15:00:14;29.63;35.80
64937;SHT30;51452;47.698;19.050;2023-07-20T15:02:40;29.66;35.43
64937;SHT30;51452;47.698;19.050;2023-07-20T15:05:09;29.56;33.68
64937;SHT30;51452;47.698;19.050;2023-07-20T15:07:35;29.63;34.35
64937;SHT30;51452;47.698;19.050;2023-07-20T15:10:02;29.55;34.42
64937;SHT30;51452;47.698;19.050;2023-07-20T15:12:27;29.52;34.11
64937;SHT30;51452;47.698;19.050;2023-07-20T15:15:13;29.52;37.87
64937;SHT30;51452;47.698;19.050;2023-07-20T15:17:39;29.69;36.47
64937;SHT30;51452;47.698;19.050;2023-07-20T15:20:07;29.62;35.90
64937;SHT30;51452;47.698;19.050;2023-07-20T15:22:34;29.56;33.88
64937;SHT30;51452;47.698;19.050;2023-07-20T15:25:04;29.51;35.58
64937;SHT30;51452;47.698;19.050;2023-07-20T15:27:30;29.58;35.21
64937;SHT30;51452;47.698;19.050;2023-07-20T15:29:56;29.36;33.01
64937;SHT30;51452;47.698;19.050;2023-07-20T15:32:21;29.39;33.57
64937;SHT30;51452;47.698;19.050;2023-07-20T15:34:47;29.45;33.20